sensor_id;sensor_type;location;lat;lon;timestamp;temperature;humidity
51637;DHT22;37713;53.254;6.460;2023-02-15T00:01:19;0.90;99.90
51637;DHT22;37713;53.254;6.460;2023-02-15T00:03:48;0.90;99.90
51637;DHT22;37713;53.254;6.460;2023-02-15T00:06:17;0.90;99.90
51637;DHT22;37713;53.254;6.460;2023-02-15T00:08:43;0.90;99.90
51637;DHT22;37713;53.254;6.460;2023-02-15T00:11:16;0.90;99.90
51637;DHT22;37713;53.254;6.460;2023-02-15T00:14:04;0.90;99.90
51637;DHT22;37713;53.254;6.460;2023-02-15T00:16:30;0.90;99.90
51637;DHT22;37713;53.254;6.460;2023-02-15T00:18:56;0.90;99.90
51637;DHT22;37713;53.254;6.460;2023-02-15T00:21:22;0.80;99.90
51637;DHT22;37713;53.254;6.460;2023-02-15T00:23:48;0.80;99.90
51637;DHT22;37713;53.254;6.460;2023-02-15T00:26:13;0.80;99.90
51637;DHT22;37713;53.254;6.460;2023-02-15T00:28:39;0.80;99.90
51637;DHT22;37713;53.254;6.460;2023-02-15T00:31:07;0.80;99.90
51637;DHT22;37713;53.254;6.460;2023-02-15T00:33:33;0.80;99.90
51637;DHT22;37713;53.254;6.460;2023-02-15T00:35:59;0.70;99.90
51637;DHT22;37713;53.254;6.460;2023-02-15T00:38:27;0.70;99.90
51637;DHT22;37713;53.254;6.460;2023-02-15T00:41:02;0.70;99.90
51637;DHT22;37713;53.254;6.460;2023-02-15T00:43:29;0.60;99.90
51637;DHT22;37713;53.254;6.460;2023-02-15T00:45:55;0.60;99.90
51637;DHT22;37713;53.254;6.460;2023-02-15T00:48:21;0.50;99.90
51637;DHT22;37713;53.254;6.460;2023-02-15T00:50:52;0.40;99.90
51637;DHT22;37713;53.254;6.460;2023-02-15T00:53:19;0.50;99.90
51637;DHT22;37713;53.254;6.460;2023-02-15T00:55:45;0.40;99.90
51637;DHT22;37713;53.254;6.460;2023-02-15T00:58:11;0.40;99.90
51637;DHT22;37713;53.254;6.460;2023-02-15T01:00:37;0.30;99.90
51637;DHT22;37713;53.254;6.460;2023-02-15T01:03:04;0.30;99.90
51637;DHT22;37713;53.254;6.460;2023-02-15T01:05:30;0.30;99.90
51637;DHT22;37713;53.254;6.460;2023-02-15T01:07:58;0.20;99.90
51637;DHT22;37713;53.254;6.460;2023-02-15T01:10:23;0.20;99.90
51637;DHT22;37713;53.254;6.460;2023-02-15T01:12:51;0.20;99.90
51637;DHT22;37713;53.254;6.460;2023-02-15T01:15:17;0.20;99.90
51637;DHT22;37713;53.254;6.460;2023-02-15T01:17:43;0.20;99.90
51637;DHT22;37713;53.254;6.460;2023-02-15T01:20:11;0.70;99.90
51637;DHT22;37713;53.254;6.460;2023-02-15T01:22:37;0.20;99.90
51637;DHT22;37713;53.254;6.460;2023-02-15T01:25:03;0.60;99.90
51637;DHT22;37713;53.254;6.460;2023-02-15T01:27:30;0.20;99.90
51637;DHT22;37713;53.254;6.460;2023-02-15T01:29:56;0.20;99.90
51637;DHT22;37713;53.254;6.460;2023-02-15T01:32:22;0.20;99.90
51637;DHT22;37713;53.254;6.460;2023-02-15T01:34:48;0.20;99.90
51637;DHT22;37713;53.254;6.460;2023-02-15T01:37:14;0.30;99.90
51637;DHT22;37713;53.254;6.460;2023-02-15T01:39:40;0.20;99.90
51637;DHT22;37713;53.254;6.460;2023-02-15T01:42:07;0.20;99.90
51637;DHT22;37713;53.254;6.460;2023-02-15T01:50:16;0.30;99.90
51637;DHT22;37713;53.254;6.460;2023-02-15T01:53:06;0.30;99.90
51637;DHT22;37713;53.254;6.460;2023-02-15T01:55:37;0.30;99.90
51637;DHT22;37713;53.254;6.460;2023-02-15T01:58:05;0.30;99.90
51637;DHT22;37713;53.254;6.460;2023-02-15T02:00:32;0.30;99.90
51637;DHT22;37713;53.254;6.460;2023-02-15T02:02:58;0.40;99.90
51637;DHT22;37713;53.254;6.460;2023-02-15T02:05:24;0.30;99.90
51637;DHT22;37713;53.254;6.460;2023-02-15T02:07:52;0.40;99.90
51637;DHT22;37713;53.254;6.460;2023-02-15T02:10:21;0.40;99.90
51637;DHT22;37713;53.254;6.460;2023-02-15T02:12:49;0.40;99.90
51637;DHT22;37713;53.254;6.460;2023-02-15T02:15:16;0.30;99.90
51637;DHT22;37713;53.254;6.460;2023-02-15T02:27:07;0.40;99.90
51637;DHT22;37713;53.254;6.460;2023-02-15T02:37:50;0.40;99.90
51637;DHT22;37713;53.254;6.460;2023-02-15T02:45:45;0.30;99.90
51637;DHT22;37713;53.254;6.460;2023-02-15T02:48:20;0.30;99.90
51637;DHT22;37713;53.254;6.460;2023-02-15T02:50:47;0.40;99.90
51637;DHT22;37713;53.254;6.460;2023-02-15T02:53:13;0.30;99.90
51637;DHT22;37713;53.254;6.460;2023-02-15T02:55:57;0.30;99.90
51637;DHT22;37713;53.254;6.460;2023-02-15T02:58:31;0.30;99.90
51637;DHT22;37713;53.254;6.460;2023-02-15T03:01:34;0.20;99.90
51637;DHT22;37713;53.254;6.460;2023-02-15T03:04:25;0.20;99.90
51637;DHT22;37713;53.254;6.460;2023-02-15T03:06:59;0.20;99.90
51637;DHT22;37713;53.254;6.460;2023-02-15T03:09:37;0.20;99.90
51637;DHT22;37713;53.254;6.460;2023-02-15T03:12:13;0.20;99.90
51637;DHT22;37713;53.254;6.460;2023-02-15T03:14:41;0.10;99.90
51637;DHT22;37713;53.254;6.460;2023-02-15T03:17:08;0.00;99.90
51637;DHT22;37713;53.254;6.460;2023-02-15T03:19:36;0.10;99.90
51637;DHT22;37713;53.254;6.460;2023-02-15T03:22:11;0.40;99.90
51637;DHT22;37713;53.254;6.460;2023-02-15T03:25:16;0.10;99.90
51637;DHT22;37713;53.254;6.460;2023-02-15T03:27:47;0.00;99.90
51637;DHT22;37713;53.254;6.460;2023-02-15T03:30:15;0.00;99.90
51637;DHT22;37713;53.254;6.460;2023-02-15T03:32:47;-0.10;99.90
51637;DHT22;37713;53.254;6.460;2023-02-15T03:35:14;0.00;99.90
51637;DHT22;37713;53.254;6.460;2023-02-15T03:37:55;-0.10;99.90
51637;DHT22;37713;53.254;6.460;2023-02-15T03:40:28;-0.10;99.90
51637;DHT22;37713;53.254;6.460;2023-02-15T03:45:40;-0.10;99.90
51637;DHT22;37713;53.254;6.460;2023-02-15T03:48:24;-0.10;99.90
51637;DHT22;37713;53.254;6.460;2023-02-15T03:50:53;-0.20;99.90
51637;DHT22;37713;53.254;6.460;2023-02-15T03:53:39;-0.20;99.90
51637;DHT22;37713;53.254;6.460;2023-02-15T03:56:05;-0.20;99.90
51637;DHT22;37713;53.254;6.460;2023-02-15T03:58:31;-0.30;99.90
51637;DHT22;37713;53.254;6.460;2023-02-15T04:04:38;-0.30;99.90
51637;DHT22;37713;53.254;6.460;2023-02-15T04:07:06;-0.30;99.90
51637;DHT22;37713;53.254;6.460;2023-02-15T04:09:33;-0.20;99.90
51637;DHT22;37713;53.254;6.460;2023-02-15T04:12:17;-0.30;99.90
51637;DHT22;37713;53.254;6.460;2023-02-15T04:14:43;-0.30;99.90
51637;DHT22;37713;53.254;6.460;2023-02-15T04:17:27;-0.20;99.90
51637;DHT22;37713;53.254;6.460;2023-02-15T04:19:53;-0.20;99.90
51637;DHT22;37713;53.254;6.460;2023-02-15T04:22:37;-0.30;99.90
51637;DHT22;37713;53.254;6.460;2023-02-15T04:25:22;0.10;99.90
51637;DHT22;37713;53.254;6.460;2023-02-15T04:27:52;-0.20;99.90
51637;DHT22;37713;53.254;6.460;2023-02-15T04:30:21;0.10;99.90
51637;DHT22;37713;53.254;6.460;2023-02-15T04:32:47;-0.20;99.90
51637;DHT22;37713;53.254;6.460;2023-02-15T04:35:14;-0.10;99.90
51637;DHT22;37713;53.254;6.460;2023-02-15T04:37:41;-0.20;99.90
51637;DHT22;37713;53.254;6.460;2023-02-15T04:40:09;-0.20;99.90
51637;DHT22;37713;53.254;6.460;2023-02-15T04:42:36;-0.20;99.90
51637;DHT22;37713;53.254;6.460;2023-02-15T04:45:02;-0.30;99.90
51637;DHT22;37713;53.254;6.460;2023-02-15T04:47:28;-0.20;99.90
51637;DHT22;37713;53.254;6.460;2023-02-15T04:49:54;-0.20;99.90
51637;DHT22;37713;53.254;6.460;2023-02-15T04:52:20;-0.20;99.90
51637;DHT22;37713;53.254;6.460;2023-02-15T04:54:45;-0.20;99.90
51637;DHT22;37713;53.254;6.460;2023-02-15T04:57:12;-0.40;99.90
51637;DHT22;37713;53.254;6.460;2023-02-15T04:59:38;-0.40;99.90
51637;DHT22;37713;53.254;6.460;2023-02-15T05:02:03;-0.30;99.90
51637;DHT22;37713;53.254;6.460;2023-02-15T05:04:29;-0.40;99.90
51637;DHT22;37713;53.254;6.460;2023-02-15T05:06:55;-0.40;99.90
51637;DHT22;37713;53.254;6.460;2023-02-15T05:09:21;-0.40;99.90
51637;DHT22;37713;53.254;6.460;2023-02-15T05:11:46;-0.40;99.90
51637;DHT22;37713;53.254;6.460;2023-02-15T05:14:12;-0.40;99.90
51637;DHT22;37713;53.254;6.460;2023-02-15T05:16:38;-0.30;99.90
51637;DHT22;37713;53.254;6.460;2023-02-15T05:19:04;-0.20;99.90
51637;DHT22;37713;53.254;6.460;2023-02-15T05:21:30;-0.40;99.90
51637;DHT22;37713;53.254;6.460;2023-02-15T05:23:56;-0.30;99.90
51637;DHT22;37713;53.254;6.460;2023-02-15T05:26:24;-0.20;99.90
51637;DHT22;37713;53.254;6.460;2023-02-15T05:29:09;-0.30;99.90
51637;DHT22;37713;53.254;6.460;2023-02-15T05:31:35;-0.30;99.90
51637;DHT22;37713;53.254;6.460;2023-02-15T05:34:01;-0.30;99.90
51637;DHT22;37713;53.254;6.460;2023-02-15T05:36:27;-0.20;99.90
51637;DHT22;37713;53.254;6.460;2023-02-15T05:38:54;-0.20;99.90
51637;DHT22;37713;53.254;6.460;2023-02-15T05:41:23;-0.30;99.90
51637;DHT22;37713;53.254;6.460;2023-02-15T05:43:49;-0.20;99.90
51637;DHT22;37713;53.254;6.460;2023-02-15T05:46:15;-0.20;99.90
51637;DHT22;37713;53.254;6.460;2023-02-15T05:48:41;-0.30;99.90
51637;DHT22;37713;53.254;6.460;2023-02-15T05:51:12;-0.20;99.90
51637;DHT22;37713;53.254;6.460;2023-02-15T05:53:39;-0.30;99.90
51637;DHT22;37713;53.254;6.460;2023-02-15T05:56:07;-0.40;99.90
51637;DHT22;37713;53.254;6.460;2023-02-15T05:58:37;-0.30;99.90
51637;DHT22;37713;53.254;6.460;2023-02-15T06:01:11;-0.30;99.90
51637;DHT22;37713;53.254;6.460;2023-02-15T06:03:37;0.00;99.90
51637;DHT22;37713;53.254;6.460;2023-02-15T06:06:03;-0.40;99.90
51637;DHT22;37713;53.254;6.460;2023-02-15T06:08:30;-0.40;99.90
51637;DHT22;37713;53.254;6.460;2023-02-15T06:10:56;-0.40;99.90
51637;DHT22;37713;53.254;6.460;2023-02-15T06:13:22;-0.40;99.90
51637;DHT22;37713;53.254;6.460;2023-02-15T06:15:48;-0.40;99.90
51637;DHT22;37713;53.254;6.460;2023-02-15T06:18:14;-0.40;99.90
51637;DHT22;37713;53.254;6.460;2023-02-15T06:20:39;-0.40;99.90
51637;DHT22;37713;53.254;6.460;2023-02-15T06:23:05;-0.40;99.90
51637;DHT22;37713;53.254;6.460;2023-02-15T06:25:31;-0.40;99.90
51637;DHT22;37713;53.254;6.460;2023-02-15T06:27:57;-0.40;99.90
51637;DHT22;37713;53.254;6.460;2023-02-15T06:30:22;-0.20;99.90
51637;DHT22;37713;53.254;6.460;2023-02-15T06:32:48;-0.30;99.90
51637;DHT22;37713;53.254;6.460;2023-02-15T06:35:14;-0.20;99.90
51637;DHT22;37713;53.254;6.460;2023-02-15T06:37:40;-0.30;99.90
51637;DHT22;37713;53.254;6.460;2023-02-15T06:40:06;-0.20;99.90
51637;DHT22;37713;53.254;6.460;2023-02-15T06:42:32;-0.10;99.90
51637;DHT22;37713;53.254;6.460;2023-02-15T06:44:58;-0.10;99.90
51637;DHT22;37713;53.254;6.460;2023-02-15T06:47:25;-0.10;99.90
51637;DHT22;37713;53.254;6.460;2023-02-15T06:49:51;-0.20;99.90
51637;DHT22;37713;53.254;6.460;2023-02-15T06:52:17;-0.10;99.90
51637;DHT22;37713;53.254;6.460;2023-02-15T06:54:42;-0.10;99.90
51637;DHT22;37713;53.254;6.460;2023-02-15T06:57:08;-0.10;99.90
51637;DHT22;37713;53.254;6.460;2023-02-15T06:59:35;-0.10;99.90
51637;DHT22;37713;53.254;6.460;2023-02-15T07:02:00;0.00;99.90
51637;DHT22;37713;53.254;6.460;2023-02-15T07:04:26;0.00;99.90
51637;DHT22;37713;53.254;6.460;2023-02-15T07:06:54;0.00;99.90
51637;DHT22;37713;53.254;6.460;2023-02-15T07:09:20;-0.10;99.90
51637;DHT22;37713;53.254;6.460;2023-02-15T07:11:45;-0.10;99.90
51637;DHT22;37713;53.254;6.460;2023-02-15T07:14:30;0.00;99.90
51637;DHT22;37713;53.254;6.460;2023-02-15T07:16:55;0.10;99.90
51637;DHT22;37713;53.254;6.460;2023-02-15T07:19:21;0.00;99.90
51637;DHT22;37713;53.254;6.460;2023-02-15T07:21:47;0.20;99.90
51637;DHT22;37713;53.254;6.460;2023-02-15T07:24:13;0.10;99.90
51637;DHT22;37713;53.254;6.460;2023-02-15T07:26:39;0.20;99.90
51637;DHT22;37713;53.254;6.460;2023-02-15T07:29:05;0.30;99.90
51637;DHT22;37713;53.254;6.460;2023-02-15T07:31:31;0.30;99.90
51637;DHT22;37713;53.254;6.460;2023-02-15T07:33:57;0.30;99.90
51637;DHT22;37713;53.254;6.460;2023-02-15T07:36:22;0.30;99.90
51637;DHT22;37713;53.254;6.460;2023-02-15T07:38:48;0.70;99.90
51637;DHT22;37713;53.254;6.460;2023-02-15T07:41:15;0.40;99.90
51637;DHT22;37713;53.254;6.460;2023-02-15T07:43:43;0.50;99.90
51637;DHT22;37713;53.254;6.460;2023-02-15T07:46:11;0.40;99.90
51637;DHT22;37713;53.254;6.460;2023-02-15T07:48:38;0.50;99.90
51637;DHT22;37713;53.254;6.460;2023-02-15T07:51:06;0.60;99.90
51637;DHT22;37713;53.254;6.460;2023-02-15T07:53:32;0.50;99.90
51637;DHT22;37713;53.254;6.460;2023-02-15T07:55:59;0.90;99.90
51637;DHT22;37713;53.254;6.460;2023-02-15T07:58:25;0.60;99.90
51637;DHT22;37713;53.254;6.460;2023-02-15T08:01:11;0.60;99.90
51637;DHT22;37713;53.254;6.460;2023-02-15T08:03:37;0.70;99.90
51637;DHT22;37713;53.254;6.460;2023-02-15T08:06:03;0.70;99.90
51637;DHT22;37713;53.254;6.460;2023-02-15T08:08:29;0.70;99.90
51637;DHT22;37713;53.254;6.460;2023-02-15T08:11:22;0.80;99.90
51637;DHT22;37713;53.254;6.460;2023-02-15T08:14:12;0.80;99.90
51637;DHT22;37713;53.254;6.460;2023-02-15T08:16:39;0.90;99.90
51637;DHT22;37713;53.254;6.460;2023-02-15T08:19:23;0.90;99.90
51637;DHT22;37713;53.254;6.460;2023-02-15T08:21:54;1.00;99.90
51637;DHT22;37713;53.254;6.460;2023-02-15T08:24:23;1.00;99.90
51637;DHT22;37713;53.254;6.460;2023-02-15T08:26:50;1.10;99.90
51637;DHT22;37713;53.254;6.460;2023-02-15T08:29:18;1.20;99.90
51637;DHT22;37713;53.254;6.460;2023-02-15T08:31:45;1.20;99.90
51637;DHT22;37713;53.254;6.460;2023-02-15T08:34:14;1.30;99.90
51637;DHT22;37713;53.254;6.460;2023-02-15T08:36:41;1.30;99.90
51637;DHT22;37713;53.254;6.460;2023-02-15T08:39:07;1.30;99.90
51637;DHT22;37713;53.254;6.460;2023-02-15T08:41:35;1.30;99.90
51637;DHT22;37713;53.254;6.460;2023-02-15T08:44:04;1.40;99.90
51637;DHT22;37713;53.254;6.460;2023-02-15T08:46:32;1.50;99.90
51637;DHT22;37713;53.254;6.460;2023-02-15T08:48:59;1.50;99.90
51637;DHT22;37713;53.254;6.460;2023-02-15T08:51:30;1.40;99.90
51637;DHT22;37713;53.254;6.460;2023-02-15T08:53:58;1.60;99.90
51637;DHT22;37713;53.254;6.460;2023-02-15T08:56:27;1.70;99.90
51637;DHT22;37713;53.254;6.460;2023-02-15T08:58:53;1.70;99.90
51637;DHT22;37713;53.254;6.460;2023-02-15T09:01:25;1.90;99.90
51637;DHT22;37713;53.254;6.460;2023-02-15T09:03:54;1.90;99.90
51637;DHT22;37713;53.254;6.460;2023-02-15T09:06:21;2.10;99.90
51637;DHT22;37713;53.254;6.460;2023-02-15T09:08:48;2.20;99.90
51637;DHT22;37713;53.254;6.460;2023-02-15T09:11:18;2.30;99.90
51637;DHT22;37713;53.254;6.460;2023-02-15T09:13:56;2.40;99.90
51637;DHT22;37713;53.254;6.460;2023-02-15T09:16:24;2.50;99.90
51637;DHT22;37713;53.254;6.460;2023-02-15T09:18:51;2.60;99.90
51637;DHT22;37713;53.254;6.460;2023-02-15T09:21:19;2.60;99.90
51637;DHT22;37713;53.254;6.460;2023-02-15T09:23:47;2.70;99.90
51637;DHT22;37713;53.254;6.460;2023-02-15T09:26:15;2.80;99.90
51637;DHT22;37713;53.254;6.460;2023-02-15T09:28:42;2.90;99.90
51637;DHT22;37713;53.254;6.460;2023-02-15T09:31:10;2.90;99.90
51637;DHT22;37713;53.254;6.460;2023-02-15T09:33:37;3.10;99.90
51637;DHT22;37713;53.254;6.460;2023-02-15T09:36:04;3.00;99.90
51637;DHT22;37713;53.254;6.460;2023-02-15T09:38:31;3.20;99.90
51637;DHT22;37713;53.254;6.460;2023-02-15T09:47:24;3.50;99.90
51637;DHT22;37713;53.254;6.460;2023-02-15T10:06:44;4.40;99.90
51637;DHT22;37713;53.254;6.460;2023-02-15T10:12:11;4.60;99.90
51637;DHT22;37713;53.254;6.460;2023-02-15T10:14:50;4.70;99.90
51637;DHT22;37713;53.254;6.460;2023-02-15T10:27:51;5.20;99.90
51637;DHT22;37713;53.254;6.460;2023-02-15T10:30:18;5.20;99.90
51637;DHT22;37713;53.254;6.460;2023-02-15T10:32:53;5.30;99.90
51637;DHT22;37713;53.254;6.460;2023-02-15T10:40:56;5.50;99.90
51637;DHT22;37713;53.254;6.460;2023-02-15T10:57:15;6.10;99.90
51637;DHT22;37713;53.254;6.460;2023-02-15T11:07:28;6.40;99.90
51637;DHT22;37713;53.254;6.460;2023-02-15T11:10:07;6.50;99.90
51637;DHT22;37713;53.254;6.460;2023-02-15T11:15:24;6.70;99.90
51637;DHT22;37713;53.254;6.460;2023-02-15T11:17:56;6.80;99.90
51637;DHT22;37713;53.254;6.460;2023-02-15T11:20:38;6.90;99.90
51637;DHT22;37713;53.254;6.460;2023-02-15T11:23:15;6.90;99.90
51637;DHT22;37713;53.254;6.460;2023-02-15T11:25:54;7.10;99.90
51637;DHT22;37713;53.254;6.460;2023-02-15T11:28:38;7.10;99.90
51637;DHT22;37713;53.254;6.460;2023-02-15T11:31:18;7.20;99.90
51637;DHT22;37713;53.254;6.460;2023-02-15T11:33:49;7.40;99.90
51637;DHT22;37713;53.254;6.460;2023-02-15T11:36:22;7.50;99.90
51637;DHT22;37713;53.254;6.460;2023-02-15T11:38:56;7.60;99.90
51637;DHT22;37713;53.254;6.460;2023-02-15T11:41:27;7.70;99.90
51637;DHT22;37713;53.254;6.460;2023-02-15T11:44:07;7.80;99.90
51637;DHT22;37713;53.254;6.460;2023-02-15T11:46:34;7.90;99.90
51637;DHT22;37713;53.254;6.460;2023-02-15T11:49:00;8.00;99.90
51637;DHT22;37713;53.254;6.460;2023-02-15T11:51:27;8.00;99.90
51637;DHT22;37713;53.254;6.460;2023-02-15T11:53:54;8.10;99.90
51637;DHT22;37713;53.254;6.460;2023-02-15T11:56:24;8.20;99.90
51637;DHT22;37713;53.254;6.460;2023-02-15T11:58:59;8.30;99.90
51637;DHT22;37713;53.254;6.460;2023-02-15T12:06:49;8.60;99.90
51637;DHT22;37713;53.254;6.460;2023-02-15T12:11:45;8.90;99.90
51637;DHT22;37713;53.254;6.460;2023-02-15T12:14:12;9.00;99.90
51637;DHT22;37713;53.254;6.460;2023-02-15T12:16:48;9.10;99.90
51637;DHT22;37713;53.254;6.460;2023-02-15T12:19:27;9.20;99.90
51637;DHT22;37713;53.254;6.460;2023-02-15T12:21:54;9.20;99.90
51637;DHT22;37713;53.254;6.460;2023-02-15T12:24:29;9.30;99.90
51637;DHT22;37713;53.254;6.460;2023-02-15T12:27:14;9.40;99.90
51637;DHT22;37713;53.254;6.460;2023-02-15T12:29:53;9.40;99.90
51637;DHT22;37713;53.254;6.460;2023-02-15T12:32:26;9.40;99.90
51637;DHT22;37713;53.254;6.460;2023-02-15T12:35:13;9.50;99.90
51637;DHT22;37713;53.254;6.460;2023-02-15T12:37:55;9.60;99.90
51637;DHT22;37713;53.254;6.460;2023-02-15T12:40:24;9.70;99.90
51637;DHT22;37713;53.254;6.460;2023-02-15T12:42:51;9.70;99.90
51637;DHT22;37713;53.254;6.460;2023-02-15T12:45:32;9.90;99.90
51637;DHT22;37713;53.254;6.460;2023-02-15T12:48:14;9.90;99.90
51637;DHT22;37713;53.254;6.460;2023-02-15T12:50:48;10.00;99.90
51637;DHT22;37713;53.254;6.460;2023-02-15T12:53:21;10.00;99.90
51637;DHT22;37713;53.254;6.460;2023-02-15T12:56:02;10.00;99.90
51637;DHT22;37713;53.254;6.460;2023-02-15T12:58:36;10.10;99.90
51637;DHT22;37713;53.254;6.460;2023-02-15T13:01:18;10.10;99.90
51637;DHT22;37713;53.254;6.460;2023-02-15T13:04:05;10.10;99.90
51637;DHT22;37713;53.254;6.460;2023-02-15T13:06:36;10.10;99.90
51637;DHT22;37713;53.254;6.460;2023-02-15T13:09:14;10.10;99.90
51637;DHT22;37713;53.254;6.460;2023-02-15T13:11:42;10.10;99.90
51637;DHT22;37713;53.254;6.460;2023-02-15T13:14:33;10.20;99.90
51637;DHT22;37713;53.254;6.460;2023-02-15T13:17:02;10.10;99.90
51637;DHT22;37713;53.254;6.460;2023-02-15T13:19:44;10.10;99.90
51637;DHT22;37713;53.254;6.460;2023-02-15T13:22:18;10.10;99.90
51637;DHT22;37713;53.254;6.460;2023-02-15T13:24:56;10.10;99.90
51637;DHT22;37713;53.254;6.460;2023-02-15T13:27:26;10.10;99.90
51637;DHT22;37713;53.254;6.460;2023-02-15T13:29:57;10.10;99.90
51637;DHT22;37713;53.254;6.460;2023-02-15T13:32:34;10.10;99.90
51637;DHT22;37713;53.254;6.460;2023-02-15T13:35:04;10.20;99.90
51637;DHT22;37713;53.254;6.460;2023-02-15T13:41:03;10.20;99.90
51637;DHT22;37713;53.254;6.460;2023-02-15T13:46:10;10.20;99.90
51637;DHT22;37713;53.254;6.460;2023-02-15T13:57:03;10.30;99.90
51637;DHT22;37713;53.254;6.460;2023-02-15T14:00:00;10.30;99.90
51637;DHT22;37713;53.254;6.460;2023-02-15T14:02:40;10.30;99.90
51637;DHT22;37713;53.254;6.460;2023-02-15T14:15:47;10.40;99.90
51637;DHT22;37713;53.254;6.460;2023-02-15T14:18:37;10.40;99.90
51637;DHT22;37713;53.254;6.460;2023-02-15T14:21:17;10.30;99.90
51637;DHT22;37713;53.254;6.460;2023-02-15T14:32:10;10.30;99.90
51637;DHT22;37713;53.254;6.460;2023-02-15T14:35:23;10.30;99.90
51637;DHT22;37713;53.254;6.460;2023-02-15T14:46:10;10.20;99.90
51637;DHT22;37713;53.254;6.460;2023-02-15T14:48:48;10.10;99.90
51637;DHT22;37713;53.254;6.460;2023-02-15T14:54:55;10.10;99.90
51637;DHT22;37713;53.254;6.460;2023-02-15T15:04:56;9.90;99.90
51637;DHT22;37713;53.254;6.460;2023-02-15T15:07:47;9.90;99.90
51637;DHT22;37713;53.254;6.460;2023-02-15T15:12:47;9.80;99.90
51637;DHT22;37713;53.254;6.460;2023-02-15T15:17:58;9.70;99.90
51637;DHT22;37713;53.254;6.460;2023-02-15T15:25:44;9.60;99.90
51637;DHT22;37713;53.254;6.460;2023-02-15T15:34:33;9.40;99.90
51637;DHT22;37713;53.254;6.460;2023-02-15T15:40:18;9.30;99.90
51637;DHT22;37713;53.254;6.460;2023-02-15T15:50:44;9.00;99.90
51637;DHT22;37713;53.254;6.460;2023-02-15T15:53:20;8.90;99.90
51637;DHT22;37713;53.254;6.460;2023-02-15T15:55:49;8.90;99.90
51637;DHT22;37713;53.254;6.460;2023-02-15T15:58:18;8.80;99.90
51637;DHT22;37713;53.254;6.460;2023-02-15T16:00:49;8.70;99.90
51637;DHT22;37713;53.254;6.460;2023-02-15T16:03:26;8.60;99.90
51637;DHT22;37713;53.254;6.460;2023-02-15T16:05:53;8.50;99.90
51637;DHT22;37713;53.254;6.460;2023-02-15T16:08:41;8.40;99.90
51637;DHT22;37713;53.254;6.460;2023-02-15T16:11:21;8.40;99.90
51637;DHT22;37713;53.254;6.460;2023-02-15T16:13:48;8.30;99.90
51637;DHT22;37713;53.254;6.460;2023-02-15T16:16:28;8.20;99.90
51637;DHT22;37713;53.254;6.460;2023-02-15T16:18:56;8.10;99.90
51637;DHT22;37713;53.254;6.460;2023-02-15T16:21:29;8.00;99.90
51637;DHT22;37713;53.254;6.460;2023-02-15T16:29:23;7.80;99.90
51637;DHT22;37713;53.254;6.460;2023-02-15T16:34:25;7.60;99.90
51637;DHT22;37713;53.254;6.460;2023-02-15T16:37:15;7.50;99.90
51637;DHT22;37713;53.254;6.460;2023-02-15T16:39:42;7.40;99.90
51637;DHT22;37713;53.254;6.460;2023-02-15T16:42:10;7.30;99.90
51637;DHT22;37713;53.254;6.460;2023-02-15T16:44:36;7.20;99.90
51637;DHT22;37713;53.254;6.460;2023-02-15T16:47:02;7.20;99.90
51637;DHT22;37713;53.254;6.460;2023-02-15T16:49:29;7.10;99.90
51637;DHT22;37713;53.254;6.460;2023-02-15T16:52:03;7.00;99.90
51637;DHT22;37713;53.254;6.460;2023-02-15T16:54:32;6.90;99.90
51637;DHT22;37713;53.254;6.460;2023-02-15T16:56:58;6.90;99.90
51637;DHT22;37713;53.254;6.460;2023-02-15T16:59:41;6.80;99.90
51637;DHT22;37713;53.254;6.460;2023-02-15T17:02:27;6.70;99.90
51637;DHT22;37713;53.254;6.460;2023-02-15T17:07:42;6.60;99.90
51637;DHT22;37713;53.254;6.460;2023-02-15T17:10:38;6.50;99.90
51637;DHT22;37713;53.254;6.460;2023-02-15T17:13:16;6.40;99.90
51637;DHT22;37713;53.254;6.460;2023-02-15T17:16:25;6.30;99.90
51637;DHT22;37713;53.254;6.460;2023-02-15T17:21:01;6.20;99.90
51637;DHT22;37713;53.254;6.460;2023-02-15T17:23:42;6.10;99.90
51637;DHT22;37713;53.254;6.460;2023-02-15T17:26:26;6.00;99.90
51637;DHT22;37713;53.254;6.460;2023-02-15T17:28:56;6.00;99.90
51637;DHT22;37713;53.254;6.460;2023-02-15T17:31:29;5.90;99.90
51637;DHT22;37713;53.254;6.460;2023-02-15T17:33:58;5.90;99.90
51637;DHT22;37713;53.254;6.460;2023-02-15T17:36:26;5.90;99.90
51637;DHT22;37713;53.254;6.460;2023-02-15T17:41:25;5.80;99.90
51637;DHT22;37713;53.254;6.460;2023-02-15T17:43:51;5.70;99.90
51637;DHT22;37713;53.254;6.460;2023-02-15T17:46:17;5.70;99.90
51637;DHT22;37713;53.254;6.460;2023-02-15T17:48:51;5.70;99.90
51637;DHT22;37713;53.254;6.460;2023-02-15T17:51:18;5.60;99.90
51637;DHT22;37713;53.254;6.460;2023-02-15T17:53:45;5.60;99.90
51637;DHT22;37713;53.254;6.460;2023-02-15T17:56:32;5.60;99.90
51637;DHT22;37713;53.254;6.460;2023-02-15T17:58:58;5.60;99.90
51637;DHT22;37713;53.254;6.460;2023-02-15T18:01:23;5.60;99.90
51637;DHT22;37713;53.254;6.460;2023-02-15T18:04:10;5.60;99.90
51637;DHT22;37713;53.254;6.460;2023-02-15T18:06:55;5.60;99.90
51637;DHT22;37713;53.254;6.460;2023-02-15T18:09:39;5.50;99.90
51637;DHT22;37713;53.254;6.460;2023-02-15T18:12:26;5.50;99.90
51637;DHT22;37713;53.254;6.460;2023-02-15T18:14:53;5.50;99.90
51637;DHT22;37713;53.254;6.460;2023-02-15T18:17:24;5.40;99.90
51637;DHT22;37713;53.254;6.460;2023-02-15T18:19:51;5.50;99.90
51637;DHT22;37713;53.254;6.460;2023-02-15T18:22:19;5.40;99.90
51637;DHT22;37713;53.254;6.460;2023-02-15T18:24:46;5.40;99.90
51637;DHT22;37713;53.254;6.460;2023-02-15T18:27:13;5.40;99.90
51637;DHT22;37713;53.254;6.460;2023-02-15T18:29:40;5.40;99.90
51637;DHT22;37713;53.254;6.460;2023-02-15T18:32:18;5.30;99.90
51637;DHT22;37713;53.254;6.460;2023-02-15T18:34:46;5.40;99.90
51637;DHT22;37713;53.254;6.460;2023-02-15T18:37:18;5.30;99.90
51637;DHT22;37713;53.254;6.460;2023-02-15T18:44:51;5.20;99.90
51637;DHT22;37713;53.254;6.460;2023-02-15T18:47:18;5.20;99.90
51637;DHT22;37713;53.254;6.460;2023-02-15T18:49:44;5.20;99.90
51637;DHT22;37713;53.254;6.460;2023-02-15T18:52:17;5.20;99.90
51637;DHT22;37713;53.254;6.460;2023-02-15T18:54:46;5.20;99.90
51637;DHT22;37713;53.254;6.460;2023-02-15T18:57:14;5.20;99.90
51637;DHT22;37713;53.254;6.460;2023-02-15T18:59:40;5.20;99.90
51637;DHT22;37713;53.254;6.460;2023-02-15T19:02:15;5.20;99.90
51637;DHT22;37713;53.254;6.460;2023-02-15T19:04:42;5.20;99.90
51637;DHT22;37713;53.254;6.460;2023-02-15T19:07:21;5.20;99.90
51637;DHT22;37713;53.254;6.460;2023-02-15T19:09:50;5.20;99.90
51637;DHT22;37713;53.254;6.460;2023-02-15T19:12:16;5.20;99.90
51637;DHT22;37713;53.254;6.460;2023-02-15T19:14:44;5.20;99.90
51637;DHT22;37713;53.254;6.460;2023-02-15T19:17:15;5.20;99.90
51637;DHT22;37713;53.254;6.460;2023-02-15T19:19:42;5.20;99.90
51637;DHT22;37713;53.254;6.460;2023-02-15T19:24:41;5.20;99.90
51637;DHT22;37713;53.254;6.460;2023-02-15T19:27:22;5.20;99.90
51637;DHT22;37713;53.254;6.460;2023-02-15T19:29:50;5.20;99.90
51637;DHT22;37713;53.254;6.460;2023-02-15T19:32:16;5.20;99.90
51637;DHT22;37713;53.254;6.460;2023-02-15T19:34:41;5.20;99.90
51637;DHT22;37713;53.254;6.460;2023-02-15T19:37:16;5.20;99.90
51637;DHT22;37713;53.254;6.460;2023-02-15T19:39:44;5.10;99.90